Time;durP1;ratioP1;P1;durP2;ratioP2;P2;SDS_P1;SDS_P2;PMS_P1;PMS_P2;Temp;Humidity;BMP_temperature;BMP_pressure;BME280_temperature;BME280_humidity;BME280_pressure;Samples;Min_cycle;Max_cycle;Signal;HPM_P1;HPM_P2
2023/12/15 00:00:00;;;;;;;;;;;;;;;20.22;45.60;102053.94;2101573;28;2179;-68
2023/12/15 00:01:01;;;;;;;;;;;;;;;20.21;45.34;102049.56;2099357;28;6177;-68
2023/12/15 00:02:03;;;;;;;;;;;;;;;20.21;45.51;102050.31;2100951;28;2007;-68
2023/12/15 00:03:04;;;;;;;;;;;;;;;20.22;45.42;102051.81;2100812;28;2098;-68
2023/12/15 00:04:05;;;;;;;;;;;;;;;20.21;45.53;102052.47;2102298;28;1588;-68
2023/12/15 00:05:07;;;;;;;;;;;;;;;20.21;45.47;102055.31;2100966;28;2000;-68
2023/12/15 00:06:08;;;;;;;;;;;;;;;20.21;45.42;102050.31;2100633;28;1583;-68
2023/12/15 00:07:10;;;;;;;;;;;;;;;20.21;45.50;102061.81;2102912;28;1973;-68
2023/12/15 00:08:11;;;;;;;;;;;;;;;20.23;45.56;102058.34;2101396;28;1996;-68
2023/12/15 00:09:13;;;;;;;;;;;;;;;20.23;45.33;102058.34;2099657;28;2048;-68
2023/12/15 00:10:14;;;;;;;;;;;;;;;20.23;45.44;102047.59;2100267;28;2158;-68
2023/12/15 00:11:16;;;;;;;;;;;;;;;20.24;45.41;102059.84;2100222;28;2361;-68
2023/12/15 00:12:17;;;;;;;;;;;;;;;20.23;45.48;102059.09;2101743;28;2162;-68
2023/12/15 00:13:18;;;;;;;;;;;;;;;20.24;45.32;102059.84;2100852;28;1940;-68
2023/12/15 00:14:20;;;;;;;;;;;;;;;20.24;45.44;102060.59;2097454;28;2182;-68
2023/12/15 00:15:22;;;;;;;;;;;;;;;20.24;45.58;102062.72;2102316;28;1609;-68
2023/12/15 00:16:23;;;;;;;;;;;;;;;20.25;45.33;102072.88;2100272;28;1956;-68
2023/12/15 00:17:25;;;;;;;;;;;;;;;20.25;45.26;102067.09;2103837;28;2270;-68
2023/12/15 00:18:26;;;;;;;;;;;;;;;20.24;45.34;102066.34;2099167;28;2093;-68
2023/12/15 00:19:28;;;;;;;;;;;;;;;20.24;45.35;102068.47;2100217;28;1812;-68
2023/12/15 00:20:29;;;;;;;;;;;;;;;20.25;45.47;102067.09;2099950;28;1953;-68
2023/12/15 00:21:30;;;;;;;;;;;;;;;20.24;45.39;102071.34;2102824;28;1558;-68
2023/12/15 00:22:32;;;;;;;;;;;;;;;20.25;45.38;102067.09;2102696;28;1844;-68
2023/12/15 00:23:34;;;;;;;;;;;;;;;20.24;45.42;102059.84;2099777;28;1721;-68
2023/12/15 00:24:35;;;;;;;;;;;;;;;20.23;45.60;102069.84;2096862;28;2159;-68
2023/12/15 00:25:37;;;;;;;;;;;;;;;20.23;45.66;102064.84;2100932;28;2114;-68
2023/12/15 00:26:38;;;;;;;;;;;;;;;20.22;45.44;102063.31;2103224;28;2139;-68
2023/12/15 00:27:39;;;;;;;;;;;;;;;20.23;45.51;102069.84;2099695;28;2242;-68
2023/12/15 00:28:41;;;;;;;;;;;;;;;20.22;45.41;102066.19;2100960;28;2158;-68
2023/12/15 00:29:42;;;;;;;;;;;;;;;20.22;45.63;102069.06;2103446;28;1622;-68
2023/12/15 00:30:43;;;;;;;;;;;;;;;20.22;45.48;102071.19;2098751;28;6150;-68
2023/12/15 00:31:45;;;;;;;;;;;;;;;20.21;45.49;102061.09;2098878;28;1973;-68
2023/12/15 00:32:46;;;;;;;;;;;;;;;20.22;45.49;102062.56;2103656;28;1949;-68
2023/12/15 00:33:48;;;;;;;;;;;;;;;20.21;45.69;102066.84;2102761;28;1555;-68
2023/12/15 00:34:49;;;;;;;;;;;;;;;20.20;45.44;102066.09;2098248;28;2130;-68
2023/12/15 00:35:51;;;;;;;;;;;;;;;20.20;45.39;102076.81;2101817;28;1944;-68
2023/12/15 00:36:52;;;;;;;;;;;;;;;20.20;45.54;102077.59;2103420;28;2031;-68
2023/12/15 00:37:54;;;;;;;;;;;;;;;20.20;45.51;102074.72;2102266;28;2039;-68
2023/12/15 00:38:55;;;;;;;;;;;;;;;20.20;45.49;102076.81;2101822;28;1948;-68
2023/12/15 00:39:56;;;;;;;;;;;;;;;20.20;45.33;102085.44;2100896;28;2028;-68
2023/12/15 00:40:58;;;;;;;;;;;;;;;20.19;45.34;102086.84;2104839;28;1877;-68
2023/12/15 00:41:59;;;;;;;;;;;;;;;20.19;45.42;102086.84;2100573;28;2325;-68
2023/12/15 00:43:01;;;;;;;;;;;;;;;20.18;45.46;102091.06;2101811;28;1569;-68
2023/12/15 00:44:02;;;;;;;;;;;;;;;20.19;45.57;102092.59;2099159;28;2127;-68
2023/12/15 00:45:04;;;;;;;;;;;;;;;20.19;45.55;102098.34;2099670;28;1927;-68
2023/12/15 00:46:05;;;;;;;;;;;;;;;20.18;45.29;102097.59;2098981;28;1928;-68
2023/12/15 00:47:07;;;;;;;;;;;;;;;20.18;45.52;102100.47;2102018;28;2028;-68
2023/12/15 00:48:08;;;;;;;;;;;;;;;20.19;45.39;102093.31;2102457;28;1987;-68
2023/12/15 00:49:10;;;;;;;;;;;;;;;20.20;45.42;102099.81;2100441;28;1619;-68
2023/12/15 00:50:12;;;;;;;;;;;;;;;20.20;45.35;102094.06;2101574;28;2087;-68
2023/12/15 00:51:13;;;;;;;;;;;;;;;20.21;45.29;102098.47;2098388;28;1949;-68
2023/12/15 00:52:14;;;;;;;;;;;;;;;20.21;45.39;102093.47;2103833;28;2048;-68
2023/12/15 00:53:16;;;;;;;;;;;;;;;20.21;45.31;102095.59;2104317;28;1605;-68
2023/12/15 00:54:17;;;;;;;;;;;;;;;20.22;45.41;102092.09;2101894;28;2150;-68
2023/12/15 00:55:19;;;;;;;;;;;;;;;20.22;45.44;102097.84;2100380;28;1632;-69
2023/12/15 00:56:20;;;;;;;;;;;;;;;20.23;45.43;102101.50;2104613;28;1677;-68
2023/12/15 00:57:22;;;;;;;;;;;;;;;20.22;45.65;102102.84;2102329;28;1676;-69
2023/12/15 00:58:23;;;;;;;;;;;;;;;20.22;45.49;102103.59;2103092;28;2108;-68
2023/12/15 00:59:24;;;;;;;;;;;;;;;20.21;45.41;102110.72;2102539;28;1737;-68
2023/12/15 01:00:26;;;;;;;;;;;;;;;20.22;45.45;102105.72;2101702;28;6205;-68
2023/12/15 01:01:27;;;;;;;;;;;;;;;20.22;45.41;102108.59;2100923;28;2250;-68
2023/12/15 01:02:29;;;;;;;;;;;;;;;20.22;45.51;102108.59;2104494;28;1629;-68
2023/12/15 01:03:30;;;;;;;;;;;;;;;20.22;45.42;102111.47;2101205;28;1852;-68
2023/12/15 01:04:31;;;;;;;;;;;;;;;20.20;45.45;102119.97;2099530;28;2208;-68
2023/12/15 01:05:33;;;;;;;;;;;;;;;20.21;45.41;102121.47;2099249;28;2216;-68
2023/12/15 01:06:34;;;;;;;;;;;;;;;20.21;45.42;102121.47;2099798;28;2127;-68
2023/12/15 01:07:36;;;;;;;;;;;;;;;20.19;45.43;102122.09;2099927;28;2171;-68
2023/12/15 01:08:38;;;;;;;;;;;;;;;20.20;45.45;102129.38;2098987;28;2167;-68
2023/12/15 01:09:39;;;;;;;;;;;;;;;20.20;45.43;102122.84;2100908;28;2447;-68
2023/12/15 01:10:40;;;;;;;;;;;;;;;20.20;45.48;102128.59;2101386;28;2035;-68
2023/12/15 01:11:42;;;;;;;;;;;;;;;20.21;45.47;102130.13;2101591;28;1609;-68
2023/12/15 01:12:43;;;;;;;;;;;;;;;20.19;45.61;102132.84;2098771;28;1953;-68
2023/12/15 01:13:45;;;;;;;;;;;;;;;20.18;45.29;102131.31;2100653;28;2061;-68
2023/12/15 01:14:46;;;;;;;;;;;;;;;20.18;45.46;102131.31;2101051;28;2005;-68
2023/12/15 01:15:47;;;;;;;;;;;;;;;20.19;45.39;102138.59;2100263;28;2083;-68
2023/12/15 01:16:49;;;;;;;;;;;;;;;20.18;45.38;102137.84;2101219;28;1995;-68
2023/12/15 01:17:50;;;;;;;;;;;;;;;20.17;45.48;102139.22;2101157;28;1987;-68
2023/12/15 01:18:56;;;;;;;;;;;;;;;20.17;45.53;102142.09;2102240;28;2107;-68
2023/12/15 01:19:58;;;;;;;;;;;;;;;20.17;45.57;102141.34;2100518;28;2194;-68
2023/12/15 01:20:59;;;;;;;;;;;;;;;20.17;45.67;102144.22;2099522;28;1898;-68
2023/12/15 01:22:00;;;;;;;;;;;;;;;20.17;45.64;102141.34;2100063;28;2188;-68
2023/12/15 01:23:02;;;;;;;;;;;;;;;20.17;45.46;102138.47;2101836;28;2127;-68
2023/12/15 01:24:03;;;;;;;;;;;;;;;20.17;45.62;102132.72;2100289;28;2183;-68
2023/12/15 01:25:05;;;;;;;;;;;;;;;20.17;45.52;102139.22;2099867;28;2012;-68
2023/12/15 01:26:07;;;;;;;;;;;;;;;20.17;45.59;102142.09;2099813;28;2047;-68
2023/12/15 01:27:10;;;;;;;;;;;;;;;20.18;45.41;102134.97;2097733;28;2091;-68
2023/12/15 01:28:11;;;;;;;;;;;;;;;20.18;45.48;102139.97;2102537;28;2286;-68
2023/12/15 01:29:12;;;;;;;;;;;;;;;20.18;45.40;102139.97;2101327;28;2083;-68
2023/12/15 01:30:14;;;;;;;;;;;;;;;20.19;45.41;102144.34;2100034;28;6162;-68
2023/12/15 01:31:15;;;;;;;;;;;;;;;20.18;45.52;102143.59;2105485;28;2104;-68
2023/12/15 01:32:17;;;;;;;;;;;;;;;20.19;45.38;102152.97;2100524;28;1823;-68
2023/12/15 01:33:18;;;;;;;;;;;;;;;20.19;45.41;102150.84;2102852;28;2142;-68
2023/12/15 01:34:20;;;;;;;;;;;;;;;20.19;45.34;102150.84;2100218;28;1518;-68
2023/12/15 01:35:21;;;;;;;;;;;;;;;20.20;45.46;102152.38;2099116;28;1638;-68
2023/12/15 01:36:23;;;;;;;;;;;;;;;20.20;45.38;102163.09;2103329;28;2123;-68
2023/12/15 01:37:24;;;;;;;;;;;;;;;20.20;45.55;102145.84;2098536;28;2201;-68
2023/12/15 01:38:26;;;;;;;;;;;;;;;20.20;45.40;102157.34;2098532;28;2141;-68
2023/12/15 01:39:27;;;;;;;;;;;;;;;20.19;45.41;102159.47;2101812;28;1972;-68
2023/12/15 01:40:29;;;;;;;;;;;;;;;20.19;45.47;102162.34;2097316;28;2142;-68
2023/12/15 01:41:31;;;;;;;;;;;;;;;20.20;45.52;102154.47;2101486;28;1720;-68
2023/12/15 01:42:33;;;;;;;;;;;;;;;20.19;45.46;102158.72;2101056;28;2106;-68
2023/12/15 01:43:34;;;;;;;;;;;;;;;20.19;45.32;102158.72;2100180;28;1629;-68
2023/12/15 01:44:36;;;;;;;;;;;;;;;20.19;45.58;102161.63;2100279;28;1949;-68
2023/12/15 01:45:37;;;;;;;;;;;;;;;20.18;45.39;102160.09;2099026;28;1889;-68
2023/12/15 01:46:38;;;;;;;;;;;;;;;20.18;45.32;102171.59;2102299;28;1930;-68
2023/12/15 01:47:40;;;;;;;;;;;;;;;20.18;45.46;102174.47;2100931;28;2067;-68
2023/12/15 01:48:42;;;;;;;;;;;;;;;20.18;45.46;102165.84;2101384;28;1918;-68
2023/12/15 01:49:46;;;;;;;;;;;;;;;20.16;45.42;102169.34;2100709;28;1531;-68
2023/12/15 01:50:48;;;;;;;;;;;;;;;20.17;45.47;102175.84;2101188;28;1878;-68
2023/12/15 01:51:49;;;;;;;;;;;;;;;20.17;45.53;102179.47;2102928;28;1586;-68
2023/12/15 01:52:50;;;;;;;;;;;;;;;20.17;45.57;102181.59;2101646;28;2103;-68
2023/12/15 01:53:52;;;;;;;;;;;;;;;20.17;45.43;102178.72;2103649;28;1806;-68
2023/12/15 01:54:53;;;;;;;;;;;;;;;20.16;45.35;102185.84;2099215;28;2197;-68
2023/12/15 01:55:55;;;;;;;;;;;;;;;20.15;45.46;102185.09;2103428;28;1588;-68
2023/12/15 01:56:56;;;;;;;;;;;;;;;20.15;45.41;102184.34;2101478;28;1534;-68
2023/12/15 01:57:57;;;;;;;;;;;;;;;20.15;45.45;102184.34;2098942;28;1955;-68
2023/12/15 01:58:59;;;;;;;;;;;;;;;20.14;45.41;102188.59;2101259;28;2243;-68
2023/12/15 02:00:06;;;;;;;;;;;;;;;20.14;45.34;102185.72;2100832;28;1960;-68
2023/12/15 02:01:08;;;;;;;;;;;;;;;20.14;45.41;102188.59;2099369;28;6732;-68
2023/12/15 02:02:09;;;;;;;;;;;;;;;20.13;45.40;102193.56;2100034;28;1789;-68
2023/12/15 02:03:11;;;;;;;;;;;;;;;20.13;45.48;102196.44;2101726;28;2135;-68
2023/12/15 02:04:12;;;;;;;;;;;;;;;20.12;45.46;102188.44;2101431;28;1881;-68
2023/12/15 02:05:14;;;;;;;;;;;;;;;20.13;45.36;102192.81;2101351;28;1924;-68
2023/12/15 02:06:15;;;;;;;;;;;;;;;20.13;45.24;102199.31;2101522;28;2003;-68
2023/12/15 02:07:17;;;;;;;;;;;;;;;20.12;45.33;102194.22;2101094;28;2259;-68
2023/12/15 02:08:18;;;;;;;;;;;;;;;20.13;45.20;102193.56;2102559;28;2011;-68
2023/12/15 02:09:20;;;;;;;;;;;;;;;20.13;45.18;102187.06;2102197;28;2074;-68
2023/12/15 02:10:21;;;;;;;;;;;;;;;20.13;45.21;102190.69;2101367;28;1937;-68
2023/12/15 02:11:22;;;;;;;;;;;;;;;20.13;45.19;102181.31;2101719;28;1633;-68
2023/12/15 02:12:24;;;;;;;;;;;;;;;20.13;45.24;102195.69;2099136;28;2189;-68
2023/12/15 02:13:25;;;;;;;;;;;;;;;20.15;45.40;102195.84;2099485;28;1997;-68
2023/12/15 02:14:27;;;;;;;;;;;;;;;20.14;45.36;102197.97;2098585;28;1984;-68
2023/12/15 02:15:28;;;;;;;;;;;;;;;20.15;45.35;102192.97;2098532;28;2228;-68
2023/12/15 02:16:30;;;;;;;;;;;;;;;20.14;45.41;102189.34;2099051;28;2307;-68
2023/12/15 02:17:31;;;;;;;;;;;;;;;20.15;45.37;102198.72;2100344;28;2201;-68
2023/12/15 02:18:32;;;;;;;;;;;;;;;20.16;45.29;102195.22;2102294;28;2275;-68
2023/12/15 02:19:34;;;;;;;;;;;;;;;20.16;45.33;102200.22;2102437;28;2083;-68
2023/12/15 02:20:35;;;;;;;;;;;;;;;20.16;45.32;102191.59;2098334;28;2056;-68
2023/12/15 02:21:37;;;;;;;;;;;;;;;20.16;45.27;102197.34;2098101;28;2277;-68
2023/12/15 02:22:38;;;;;;;;;;;;;;;20.15;45.32;102196.59;2099264;28;2219;-68
2023/12/15 02:23:40;;;;;;;;;;;;;;;20.16;45.34;102197.34;2100635;28;2182;-68
2023/12/15 02:24:41;;;;;;;;;;;;;;;20.15;45.40;102193.72;2102748;28;2229;-68
2023/12/15 02:25:42;;;;;;;;;;;;;;;20.14;45.09;102189.34;2100615;28;1921;-68
2023/12/15 02:26:44;;;;;;;;;;;;;;;20.15;45.32;102195.84;2098155;28;1932;-68
2023/12/15 02:27:45;;;;;;;;;;;;;;;20.14;45.38;102205.84;2098610;28;1578;-68
2023/12/15 02:28:46;;;;;;;;;;;;;;;20.14;45.36;102205.84;2100459;28;1922;-68
2023/12/15 02:29:48;;;;;;;;;;;;;;;20.14;45.39;102200.09;2101459;28;1637;-68
2023/12/15 02:30:49;;;;;;;;;;;;;;;20.11;45.61;102202.06;2096600;28;7374;-68
2023/12/15 02:31:51;;;;;;;;;;;;;;;20.12;45.37;102205.72;2099968;28;1604;-68
2023/12/15 02:32:52;;;;;;;;;;;;;;;20.13;45.46;102198.56;2098566;28;2099;-69
2023/12/15 02:33:54;;;;;;;;;;;;;;;20.12;45.35;102202.84;2099388;28;1736;-68
2023/12/15 02:34:56;;;;;;;;;;;;;;;20.13;45.39;102210.06;2101535;28;1889;-68
2023/12/15 02:35:58;;;;;;;;;;;;;;;20.12;45.32;102211.47;2103185;28;1685;-68
2023/12/15 02:36:59;;;;;;;;;;;;;;;20.11;45.32;102212.81;2099075;28;2041;-68
2023/12/15 02:38:07;;;;;;;;;;;;;;;20.11;45.38;102204.19;2100365;28;1598;-67
2023/12/15 02:39:08;;;;;;;;;;;;;;;20.11;45.37;102213.56;2101059;28;2018;-68
2023/12/15 02:40:10;;;;;;;;;;;;;;;20.11;45.28;102207.06;2099293;28;1927;-68
2023/12/15 02:41:11;;;;;;;;;;;;;;;20.09;45.35;102211.31;2099698;28;2177;-68
2023/12/15 02:42:13;;;;;;;;;;;;;;;20.09;45.32;102214.19;2098156;28;1636;-67
2023/12/15 02:43:14;;;;;;;;;;;;;;;20.09;45.48;102216.31;2098666;28;2146;-68
2023/12/15 02:44:16;;;;;;;;;;;;;;;20.09;45.44;102211.31;2098870;28;1943;-67
2023/12/15 02:45:17;;;;;;;;;;;;;;;20.09;45.49;102217.06;2103123;28;1539;-67
2023/12/15 02:46:18;;;;;;;;;;;;;;;20.09;45.28;102217.06;2099557;28;1779;-67
2023/12/15 02:47:20;;;;;;;;;;;;;;;20.11;45.33;102218.56;2101285;28;1598;-68
2023/12/15 02:48:21;;;;;;;;;;;;;;;20.11;45.43;102221.44;2102516;28;1928;-67
2023/12/15 02:49:23;;;;;;;;;;;;;;;20.11;45.41;102221.44;2100270;28;1960;-68
2023/12/15 02:50:24;;;;;;;;;;;;;;;20.12;45.23;102225.84;2100452;28;1819;-68
2023/12/15 02:51:29;;;;;;;;;;;;;;;20.13;45.21;102230.22;2100540;28;1948;-68
2023/12/15 02:52:30;;;;;;;;;;;;;;;20.12;45.32;102222.97;2098045;28;1909;-68
2023/12/15 02:53:32;;;;;;;;;;;;;;;20.12;45.19;102225.84;2099042;28;2296;-67
2023/12/15 02:54:33;;;;;;;;;;;;;;;20.13;45.55;102228.09;2100653;28;1546;-67
2023/12/15 02:55:35;;;;;;;;;;;;;;;20.12;45.30;102225.84;2102565;28;2507;-68
2023/12/15 02:56:36;;;;;;;;;;;;;;;20.13;45.47;102227.34;2098840;28;1972;-68
2023/12/15 02:57:37;;;;;;;;;;;;;;;20.13;45.37;102228.09;2098194;28;1634;-68
2023/12/15 02:58:39;;;;;;;;;;;;;;;20.14;45.43;102223.09;2103214;28;1981;-68
2023/12/15 02:59:41;;;;;;;;;;;;;;;20.13;45.35;102227.34;2099429;28;1945;-67
2023/12/15 03:00:42;;;;;;;;;;;;;;;20.13;45.38;102233.09;2100687;28;5975;-68
2023/12/15 03:01:44;;;;;;;;;;;;;;;20.12;45.46;102226.59;2098954;28;2326;-68
2023/12/15 03:02:45;;;;;;;;;;;;;;;20.13;45.26;102218.72;2098493;28;2222;-68
2023/12/15 03:03:46;;;;;;;;;;;;;;;20.12;45.32;102229.47;2102199;28;2053;-68
2023/12/15 03:04:48;;;;;;;;;;;;;;;20.12;45.43;102231.59;2099384;28;2024;-68
2023/12/15 03:05:49;;;;;;;;;;;;;;;20.12;45.32;102231.59;2098817;28;1858;-68
2023/12/15 03:06:51;;;;;;;;;;;;;;;20.12;45.32;102237.34;2099889;28;1522;-68
2023/12/15 03:07:52;;;;;;;;;;;;;;;20.12;45.53;102237.34;2100183;28;1784;-68
2023/12/15 03:08:53;;;;;;;;;;;;;;;20.11;45.44;102227.19;2099580;28;1956;-67
2023/12/15 03:09:55;;;;;;;;;;;;;;;20.11;45.44;102230.81;2099366;28;1549;-68
2023/12/15 03:10:57;;;;;;;;;;;;;;;20.10;45.43;102235.06;2101246;28;2134;-67
2023/12/15 03:11:59;;;;;;;;;;;;;;;20.11;45.35;102242.31;2099369;28;1675;-68
2023/12/15 03:13:00;;;;;;;;;;;;;;;20.09;45.35;102234.31;2099852;28;2214;-68
2023/12/15 03:14:02;;;;;;;;;;;;;;;20.10;45.47;102240.81;2100867;28;2313;-68
2023/12/15 03:15:03;;;;;;;;;;;;;;;20.09;45.37;102245.81;2102785;28;1795;-67
2023/12/15 03:16:09;;;;;;;;;;;;;;;20.09;45.46;102240.06;2098700;28;2177;-68
2023/12/15 03:17:10;;;;;;;;;;;;;;;20.08;45.37;102250.06;2098829;28;2448;-67
2023/12/15 03:18:11;;;;;;;;;;;;;;;20.07;45.35;102245.69;2102642;28;1649;-67
2023/12/15 03:19:13;;;;;;;;;;;;;;;20.07;45.37;102245.69;2097063;28;2028;-68
2023/12/15 03:20:14;;;;;;;;;;;;;;;20.08;45.45;102250.06;2103880;28;1983;-67
2023/12/15 03:21:16;;;;;;;;;;;;;;;20.07;45.52;102248.56;2099094;28;1995;-67
2023/12/15 03:22:17;;;;;;;;;;;;;;;20.07;45.38;102257.19;2099882;28;1662;-67
2023/12/15 03:23:18;;;;;;;;;;;;;;;20.06;45.33;102249.91;2097987;28;1968;-68
2023/12/15 03:24:20;;;;;;;;;;;;;;;20.07;45.38;102257.19;2101600;28;1487;-67
2023/12/15 03:25:21;;;;;;;;;;;;;;;20.07;45.36;102254.31;2100438;28;1672;-68
2023/12/15 03:26:23;;;;;;;;;;;;;;;20.08;45.32;102250.06;2100476;28;2158;-67
2023/12/15 03:27:24;;;;;;;;;;;;;;;20.07;45.32;102248.56;2100877;28;2050;-67
2023/12/15 03:28:25;;;;;;;;;;;;;;;20.08;45.34;102240.69;2102646;28;1823;-68
2023/12/15 03:29:27;;;;;;;;;;;;;;;20.08;45.32;102250.06;2098864;28;2154;-67
2023/12/15 03:30:28;;;;;;;;;;;;;;;20.09;45.27;102250.84;2099466;28;7449;-67
2023/12/15 03:31:30;;;;;;;;;;;;;;;20.09;45.27;102245.06;2101290;28;2301;-67
2023/12/15 03:32:31;;;;;;;;;;;;;;;20.10;45.30;102246.56;2100271;28;1577;-67
2023/12/15 03:33:34;;;;;;;;;;;;;;;20.10;45.41;102258.06;2100114;28;1550;-67
2023/12/15 03:34:35;;;;;;;;;;;;;;;20.10;45.43;102258.06;2100824;28;1836;-67
2023/12/15 03:35:37;;;;;;;;;;;;;;;20.11;45.27;102258.81;2098666;28;2035;-68
2023/12/15 03:36:38;;;;;;;;;;;;;;;20.12;45.25;102263.97;2100327;28;2134;-67
2023/12/15 03:37:41;;;;;;;;;;;;;;;20.12;45.34;102266.09;2104449;28;1664;-67
2023/12/15 03:38:42;;;;;;;;;;;;;;;20.12;45.44;102263.97;2099454;28;2021;-67
2023/12/15 03:39:43;;;;;;;;;;;;;;;20.11;45.29;102253.81;2100024;28;1985;-67
2023/12/15 03:40:45;;;;;;;;;;;;;;;20.12;45.27;102263.22;2100593;28;1870;-67
2023/12/15 03:41:46;;;;;;;;;;;;;;;20.13;45.34;102267.59;2100571;28;1701;-67
2023/12/15 03:42:47;;;;;;;;;;;;;;;20.13;45.24;102274.09;2098937;28;1633;-67
2023/12/15 03:43:49;;;;;;;;;;;;;;;20.13;45.21;102259.72;2099699;28;1557;-67
2023/12/15 03:44:50;;;;;;;;;;;;;;;20.14;45.63;102266.25;2100522;28;1945;-67
2023/12/15 03:45:52;;;;;;;;;;;;;;;20.16;45.62;102260.59;2101914;28;1986;-67
2023/12/15 03:46:53;;;;;;;;;;;;;;;20.16;45.52;102263.47;2097179;28;2087;-67
2023/12/15 03:47:54;;;;;;;;;;;;;;;20.16;45.52;102260.59;2099137;28;2009;-67
2023/12/15 03:48:56;;;;;;;;;;;;;;;20.16;45.55;102263.47;2100059;28;1949;-67
2023/12/15 03:49:57;;;;;;;;;;;;;;;20.17;45.62;102262.13;2100429;28;2254;-67
2023/12/15 03:50:59;;;;;;;;;;;;;;;20.17;45.66;102262.88;2098686;28;2013;-67
2023/12/15 03:52:00;;;;;;;;;;;;;;;20.17;45.67;102270.75;2102080;28;2041;-67
2023/12/15 03:53:02;;;;;;;;;;;;;;;20.17;45.62;102262.88;2100722;28;2122;-67
2023/12/15 03:54:03;;;;;;;;;;;;;;;20.17;45.76;102271.50;2101914;28;1843;-67
2023/12/15 03:55:05;;;;;;;;;;;;;;;20.18;45.45;102283.75;2097155;28;2269;-67
2023/12/15 03:56:07;;;;;;;;;;;;;;;20.18;45.46;102275.13;2100354;28;2278;-67
2023/12/15 03:57:08;;;;;;;;;;;;;;;20.19;45.41;102276.66;2101955;28;2336;-67
2023/12/15 03:58:09;;;;;;;;;;;;;;;20.19;45.46;102276.66;2098566;28;1721;-67
2023/12/15 03:59:11;;;;;;;;;;;;;;;20.21;45.68;102288.31;2101782;28;1984;-67
2023/12/15 04:00:12;;;;;;;;;;;;;;;20.20;45.64;102278.16;2095931;28;6275;-67
2023/12/15 04:01:14;;;;;;;;;;;;;;;20.20;45.60;102283.91;2099539;28;1969;-67
2023/12/15 04:02:15;;;;;;;;;;;;;;;20.21;45.61;102285.44;2101269;28;1539;-67
2023/12/15 04:03:17;;;;;;;;;;;;;;;20.21;45.56;102279.69;2100262;28;1585;-67
2023/12/15 04:04:18;;;;;;;;;;;;;;;20.21;45.62;102286.19;2098717;28;1995;-67
2023/12/15 04:05:20;;;;;;;;;;;;;;;20.22;45.72;102286.94;2099446;28;1984;-67
2023/12/15 04:06:21;;;;;;;;;;;;;;;20.21;45.73;102276.81;2100186;28;1647;-67
2023/12/15 04:07:23;;;;;;;;;;;;;;;20.21;45.74;102285.44;2100779;28;2155;-67
2023/12/15 04:08:24;;;;;;;;;;;;;;;20.20;45.81;102286.78;2099855;28;1865;-67
2023/12/15 04:09:25;;;;;;;;;;;;;;;20.21;45.94;102282.56;2099857;28;2086;-67
2023/12/15 04:10:27;;;;;;;;;;;;;;;20.20;45.62;102275.28;2104335;28;1587;-67
2023/12/15 04:11:28;;;;;;;;;;;;;;;20.20;45.57;102275.28;2099671;28;2088;-67
2023/12/15 04:12:30;;;;;;;;;;;;;;;20.20;45.54;102289.66;2101255;28;2003;-67
2023/12/15 04:13:31;;;;;;;;;;;;;;;20.20;45.62;102284.69;2101969;28;1890;-67
2023/12/15 04:14:33;;;;;;;;;;;;;;;20.19;45.56;102277.41;2099753;28;1960;-67
2023/12/15 04:15:34;;;;;;;;;;;;;;;20.20;45.66;102289.66;2102518;28;1668;-67
2023/12/15 04:16:36;;;;;;;;;;;;;;;20.20;45.83;102278.16;2099828;28;1499;-67
2023/12/15 04:17:37;;;;;;;;;;;;;;;20.19;45.54;102288.91;2103250;28;2329;-67
2023/12/15 04:18:39;;;;;;;;;;;;;;;20.19;45.74;102293.91;2099561;28;1839;-67
2023/12/15 04:19:41;;;;;;;;;;;;;;;20.19;45.54;102291.78;2099994;28;1949;-67
2023/12/15 04:20:42;;;;;;;;;;;;;;;20.19;45.74;102291.03;2101503;28;1950;-67
2023/12/15 04:21:44;;;;;;;;;;;;;;;20.19;45.47;102293.91;2102031;28;1647;-67
2023/12/15 04:22:45;;;;;;;;;;;;;;;20.18;45.55;102292.41;2101822;28;2008;-67
2023/12/15 04:23:47;;;;;;;;;;;;;;;20.19;45.48;102288.16;2100511;28;1996;-67
2023/12/15 04:24:48;;;;;;;;;;;;;;;20.20;45.48;102301.16;2100625;28;1945;-67
2023/12/15 04:25:50;;;;;;;;;;;;;;;20.19;45.65;102291.78;2101179;28;1546;-67
2023/12/15 04:26:51;;;;;;;;;;;;;;;20.19;45.36;102293.91;2102117;28;2075;-67
2023/12/15 04:27:53;;;;;;;;;;;;;;;20.20;45.45;102301.16;2105029;28;1587;-67
2023/12/15 04:28:54;;;;;;;;;;;;;;;20.20;45.46;102301.16;2102133;28;1806;-67
2023/12/15 04:29:55;;;;;;;;;;;;;;;20.20;45.62;102299.06;2102159;28;1972;-67
2023/12/15 04:30:57;;;;;;;;;;;;;;;20.20;45.60;102295.41;2101894;28;6110;-67
2023/12/15 04:31:58;;;;;;;;;;;;;;;20.21;45.64;102297.69;2102380;28;1665;-67
2023/12/15 04:33:00;;;;;;;;;;;;;;;20.22;45.64;102292.69;2101591;28;1858;-67
2023/12/15 04:34:01;;;;;;;;;;;;;;;20.22;45.73;102301.31;2103375;28;1545;-67
2023/12/15 04:35:03;;;;;;;;;;;;;;;20.22;45.71;102304.94;2101714;28;2009;-67
2023/12/15 04:36:05;;;;;;;;;;;;;;;20.23;45.66;102306.47;2099237;28;1847;-67
2023/12/15 04:37:06;;;;;;;;;;;;;;;20.23;45.53;102317.97;2098974;28;2118;-67
2023/12/15 04:38:08;;;;;;;;;;;;;;;20.23;45.58;102312.22;2103240;28;2511;-67
2023/12/15 04:39:09;;;;;;;;;;;;;;;20.23;45.63;102303.59;2100982;28;1905;-67
2023/12/15 04:40:13;;;;;;;;;;;;;;;20.24;45.73;102307.22;2100606;28;1560;-67
2023/12/15 04:41:18;;;;;;;;;;;;;;;20.23;45.70;102300.72;2099765;28;1935;-67
2023/12/15 04:42:19;;;;;;;;;;;;;;;20.24;45.77;102307.22;2101681;28;1510;-67
2023/12/15 04:43:21;;;;;;;;;;;;;;;20.25;45.59;102302.97;2099707;28;1790;-67
2023/12/15 04:44:22;;;;;;;;;;;;;;;20.24;45.64;102310.09;2099888;28;1729;-67
2023/12/15 04:45:23;;;;;;;;;;;;;;;20.24;45.77;102307.97;2098347;28;2147;-67
2023/12/15 04:46:27;;;;;;;;;;;;;;;20.25;45.82;102305.84;2102089;28;1674;-67
2023/12/15 04:47:28;;;;;;;;;;;;;;;20.24;45.67;102307.22;2102824;28;2174;-67
2023/12/15 04:48:32;;;;;;;;;;;;;;;20.24;45.61;102304.34;2101868;28;1969;-67
2023/12/15 04:49:33;;;;;;;;;;;;;;;20.24;45.46;102307.97;2101968;28;1842;-67
2023/12/15 04:50:35;;;;;;;;;;;;;;;20.24;45.54;102310.84;2101288;28;2000;-67
2023/12/15 04:51:37;;;;;;;;;;;;;;;20.23;45.66;102305.72;2101137;28;1570;-67
2023/12/15 04:52:39;;;;;;;;;;;;;;;20.23;45.55;102299.97;2097572;28;1948;-67
2023/12/15 04:53:40;;;;;;;;;;;;;;;20.23;45.78;102300.72;2102710;28;1599;-67
2023/12/15 04:54:41;;;;;;;;;;;;;;;20.24;45.62;102301.47;2102066;28;1957;-67
2023/12/15 04:55:43;;;;;;;;;;;;;;;20.23;45.61;102305.72;2104453;28;1592;-67
2023/12/15 04:56:44;;;;;;;;;;;;;;;20.23;45.55;102308.59;2100111;28;1684;-67
2023/12/15 04:57:46;;;;;;;;;;;;;;;20.23;45.63;102308.59;2101629;28;2243;-67
2023/12/15 04:58:50;;;;;;;;;;;;;;;20.23;45.70;102317.22;2102064;28;1517;-67
2023/12/15 04:59:51;;;;;;;;;;;;;;;20.22;45.67;102316.44;2102573;28;2340;-67
2023/12/15 05:00:53;;;;;;;;;;;;;;;20.22;45.55;102304.19;2100956;28;6089;-67
2023/12/15 05:01:54;;;;;;;;;;;;;;;20.22;45.55;102316.44;2104140;28;1864;-67
2023/12/15 05:02:56;;;;;;;;;;;;;;;20.21;45.54;102319.94;2104081;28;1613;-67
2023/12/15 05:03:57;;;;;;;;;;;;;;;20.22;45.49;102315.69;2101059;28;1623;-67
2023/12/15 05:04:59;;;;;;;;;;;;;;;20.21;45.67;102309.19;2099368;28;1988;-67
2023/12/15 05:06:00;;;;;;;;;;;;;;;20.23;45.60;102320.09;2099119;28;2099;-67
2023/12/15 05:07:02;;;;;;;;;;;;;;;20.22;45.77;102321.44;2102723;28;2214;-67
2023/12/15 05:08:03;;;;;;;;;;;;;;;20.23;45.54;102311.47;2100476;28;2178;-67
2023/12/15 05:09:08;;;;;;;;;;;;;;;20.23;45.63;102317.97;2101065;28;2519;-67
2023/12/15 05:10:10;;;;;;;;;;;;;;;20.24;45.74;102318.72;2103516;28;2186;-67
2023/12/15 05:11:11;;;;;;;;;;;;;;;20.24;45.70;102313.72;2099586;28;2218;-67
2023/12/15 05:12:12;;;;;;;;;;;;;;;20.25;45.76;102326.00;2099342;28;2146;-67
2023/12/15 05:13:14;;;;;;;;;;;;;;;20.24;45.51;102318.72;2099698;28;2126;-67
2023/12/15 05:14:15;;;;;;;;;;;;;;;20.25;45.57;102328.88;2101633;28;2459;-67
2023/12/15 05:15:17;;;;;;;;;;;;;;;20.26;45.82;102327.50;2098982;28;1924;-67
2023/12/15 05:16:18;;;;;;;;;;;;;;;20.26;45.50;102327.50;2098699;28;2107;-67
2023/12/15 05:17:22;;;;;;;;;;;;;;;20.27;45.70;102335.53;2100994;28;2159;-67
2023/12/15 05:18:27;;;;;;;;;;;;;;;20.27;45.82;102334.75;2100764;28;1966;-67
2023/12/15 05:19:28;;;;;;;;;;;;;;;20.28;45.58;102339.13;2101417;28;2124;-67
2023/12/15 05:20:31;;;;;;;;;;;;;;;20.27;45.62;102343.38;2101375;28;1964;-67